createdAt,value
2023-02-02T00:00:26.626Z,1.32
2023-02-02T00:03:57.685Z,1.39
2023-02-02T00:07:29.584Z,1.43
2023-02-02T00:14:43.539Z,1.42
2023-02-02T00:18:21.634Z,1.40
2023-02-02T00:21:51.664Z,1.38
2023-02-02T00:24:51.451Z,1.31
2023-02-02T00:27:19.306Z,1.27
2023-02-02T00:29:47.319Z,1.22
2023-02-02T00:32:15.114Z,1.19
2023-02-02T00:34:42.989Z,1.17
2023-02-02T00:37:10.837Z,1.16
2023-02-02T00:39:38.660Z,1.15
2023-02-02T00:42:06.538Z,1.14
2023-02-02T00:44:54.127Z,1.12
2023-02-02T00:47:22.583Z,1.09
2023-02-02T00:49:50.452Z,1.04
2023-02-02T00:52:18.221Z,1.02
2023-02-02T00:54:46.148Z,0.99
2023-02-02T00:57:14.791Z,0.96
2023-02-02T00:59:42.930Z,0.92
2023-02-02T01:02:12.526Z,0.91
2023-02-02T01:04:40.655Z,0.92
2023-02-02T01:07:09.257Z,0.94
2023-02-02T01:09:37.116Z,0.95
2023-02-02T01:12:05.348Z,0.97
2023-02-02T01:14:33.179Z,0.96
2023-02-02T01:17:01.147Z,0.94
2023-02-02T01:19:28.961Z,0.91
2023-02-02T01:21:56.860Z,0.87
2023-02-02T01:24:27.963Z,0.81
2023-02-02T01:26:56.915Z,0.77
2023-02-02T01:29:25.661Z,0.71
2023-02-02T01:31:53.941Z,0.68
2023-02-02T01:34:21.948Z,0.67
2023-02-02T01:36:49.823Z,0.66
2023-02-02T01:39:17.874Z,0.66
2023-02-02T01:41:46.156Z,0.65
2023-02-02T01:44:47.991Z,0.64
2023-02-02T01:47:16.252Z,0.63
2023-02-02T01:49:44.584Z,0.60
2023-02-02T01:52:15.190Z,0.59
2023-02-02T01:54:50.783Z,0.54
2023-02-02T01:57:33.405Z,0.51
2023-02-02T02:00:05.088Z,0.50
2023-02-02T02:02:48.311Z,0.48
2023-02-02T02:05:23.755Z,0.44
2023-02-02T02:07:56.317Z,0.39
2023-02-02T02:10:24.170Z,0.33
2023-02-02T02:12:52.012Z,0.26
2023-02-02T02:15:39.821Z,0.17
2023-02-02T02:18:30.074Z,0.08
2023-02-02T02:21:40.213Z,0.01
2023-02-02T02:24:55.370Z,-0.08
2023-02-02T02:27:57.297Z,-0.15
2023-02-02T02:30:51.040Z,-0.21
2023-02-02T02:33:31.673Z,-0.25
2023-02-02T02:36:12.763Z,-0.26
2023-02-02T02:38:50.619Z,-0.26
2023-02-02T02:41:23.922Z,-0.26
2023-02-02T02:44:06.629Z,-0.25
2023-02-02T02:46:36.237Z,-0.25
2023-02-02T02:49:04.527Z,-0.24
2023-02-02T02:51:46.196Z,-0.24
2023-02-02T02:54:24.173Z,-0.23
2023-02-02T02:57:03.437Z,-0.20
2023-02-02T02:59:42.367Z,-0.14
2023-02-02T03:02:31.194Z,-0.08
2023-02-02T03:05:09.668Z,-0.01
2023-02-02T03:07:44.626Z,0.06
2023-02-02T03:10:14.760Z,0.14
2023-02-02T03:12:46.990Z,0.21
2023-02-02T03:15:16.014Z,0.27
2023-02-02T03:17:45.864Z,0.32
2023-02-02T03:20:14.143Z,0.30
2023-02-02T03:22:42.342Z,0.25
2023-02-02T03:25:11.357Z,0.21
2023-02-02T03:27:41.143Z,0.14
2023-02-02T03:30:12.391Z,0.09
2023-02-02T03:32:41.481Z,0.03
2023-02-02T03:35:10.089Z,-0.05
2023-02-02T03:37:38.406Z,-0.20
2023-02-02T03:40:06.937Z,-0.21
2023-02-02T03:42:34.771Z,-0.22
2023-02-02T03:45:02.702Z,-0.26
2023-02-02T03:47:31.289Z,-0.36
2023-02-02T03:49:59.155Z,-0.39
2023-02-02T03:52:27.122Z,-0.39
2023-02-02T03:54:55.029Z,-0.40
2023-02-02T03:57:22.907Z,-0.39
2023-02-02T03:59:50.788Z,-0.41
2023-02-02T04:02:18.993Z,-0.41
2023-02-02T04:04:47.821Z,-0.56
2023-02-02T04:07:16.159Z,-0.62
2023-02-02T04:09:44.471Z,-0.62
2023-02-02T04:12:12.321Z,-0.62
2023-02-02T04:14:40.216Z,-0.66
2023-02-02T04:17:08.103Z,-0.71
2023-02-02T04:19:35.996Z,-0.69
2023-02-02T04:22:03.857Z,-0.63
2023-02-02T04:24:31.831Z,-0.59
2023-02-02T04:26:59.733Z,-0.57
2023-02-02T04:29:27.536Z,-0.58
2023-02-02T04:31:56.166Z,-0.59
2023-02-02T04:34:23.983Z,-0.54
2023-02-02T04:36:51.754Z,-0.43
2023-02-02T04:39:19.676Z,-0.35
2023-02-02T04:41:47.493Z,-0.29
2023-02-02T04:44:16.062Z,-0.27
2023-02-02T04:46:44.492Z,-0.26
2023-02-02T04:49:12.605Z,-0.23
2023-02-02T04:51:41.000Z,-0.22
2023-02-02T04:54:09.033Z,-0.22
2023-02-02T04:56:37.053Z,-0.22
2023-02-02T04:59:05.025Z,-0.20
2023-02-02T05:01:32.907Z,-0.20
2023-02-02T05:04:00.802Z,-0.20
2023-02-02T05:06:28.745Z,-0.20
2023-02-02T05:08:56.663Z,-0.21
2023-02-02T05:11:24.659Z,-0.22
2023-02-02T05:13:54.957Z,-0.24
2023-02-02T05:16:23.888Z,-0.26
2023-02-02T05:18:53.673Z,-0.29
2023-02-02T05:21:22.505Z,-0.31
2023-02-02T05:23:50.498Z,-0.35
2023-02-02T05:26:22.710Z,-0.39
2023-02-02T05:28:50.944Z,-0.41
2023-02-02T05:31:21.933Z,-0.43
2023-02-02T05:33:49.836Z,-0.42
2023-02-02T05:36:17.790Z,-0.40
2023-02-02T05:38:45.612Z,-0.36
2023-02-02T05:41:13.461Z,-0.31
2023-02-02T05:43:41.440Z,-0.24
2023-02-02T05:46:09.533Z,-0.16
2023-02-02T05:48:38.419Z,-0.09
2023-02-02T05:51:12.466Z,-0.01
2023-02-02T05:53:40.381Z,0.06
2023-02-02T05:56:08.198Z,0.12
2023-02-02T05:58:36.159Z,0.17
2023-02-02T06:01:04.177Z,0.22
2023-02-02T06:03:32.125Z,0.26
2023-02-02T06:06:00.319Z,0.27
2023-02-02T06:08:28.139Z,0.24
2023-02-02T06:10:56.045Z,0.17
2023-02-02T06:13:24.393Z,0.11
2023-02-02T06:15:52.541Z,0.07
2023-02-02T06:18:20.671Z,0.01
2023-02-02T06:20:48.643Z,-0.05
2023-02-02T06:23:17.066Z,-0.13
2023-02-02T06:25:44.983Z,-0.19
2023-02-02T06:28:13.174Z,-0.24
2023-02-02T06:30:43.220Z,-0.27
2023-02-02T06:33:12.290Z,-0.32
2023-02-02T06:35:40.221Z,-0.40
2023-02-02T06:38:08.407Z,-0.40
2023-02-02T06:40:36.314Z,-0.40
2023-02-02T06:43:04.464Z,-0.37
2023-02-02T06:45:32.813Z,-0.36
2023-02-02T06:48:03.574Z,-0.40
2023-02-02T06:50:31.611Z,-0.45
2023-02-02T06:52:59.756Z,-0.41
2023-02-02T06:55:27.913Z,-0.41
2023-02-02T06:57:58.615Z,-0.37
2023-02-02T07:00:30.484Z,-0.28
2023-02-02T07:02:58.664Z,-0.19
2023-02-02T07:05:30.403Z,-0.10
2023-02-02T07:08:05.556Z,0.01
2023-02-02T07:11:13.484Z,0.14
2023-02-02T07:13:39.967Z,0.30
2023-02-02T07:16:26.732Z,0.43
2023-02-02T07:20:17.872Z,0.52
2023-02-02T07:23:19.968Z,0.58
2023-02-02T08:13:58.755Z,1.58
2023-02-02T08:20:22.912Z,1.70
2023-02-02T08:22:51.898Z,1.77
2023-02-02T08:25:24.909Z,1.82
2023-02-02T08:27:54.446Z,1.90
2023-02-02T08:30:22.399Z,1.99
2023-02-02T08:32:52.840Z,2.06
2023-02-02T08:35:23.607Z,2.12
2023-02-02T08:38:12.209Z,2.14
2023-02-02T08:40:55.273Z,2.13
2023-02-02T08:43:26.915Z,2.13
2023-02-02T08:46:34.154Z,2.03
2023-02-02T08:49:59.379Z,2.08
2023-02-02T08:52:12.345Z,2.12
2023-02-02T08:54:43.510Z,2.06
2023-02-02T09:00:57.772Z,2.06
2023-02-02T09:04:39.215Z,2.14
2023-02-02T09:07:21.171Z,2.27
2023-02-02T09:10:08.339Z,2.43
2023-02-02T09:14:24.310Z,2.64
2023-02-02T09:17:45.578Z,2.82
2023-02-02T09:21:21.194Z,2.75
2023-02-02T09:24:15.384Z,2.59
2023-02-02T09:26:54.598Z,2.48
2023-02-02T09:29:54.452Z,2.37
2023-02-02T09:32:36.675Z,2.34
2023-02-02T09:35:20.484Z,2.32
2023-02-02T09:38:09.711Z,2.32
2023-02-02T09:41:15.095Z,2.36
2023-02-02T09:44:19.195Z,2.42
2023-02-02T09:47:32.830Z,2.42
2023-02-02T09:51:01.982Z,2.43
2023-02-02T09:53:55.311Z,2.47
2023-02-02T09:56:41.697Z,2.48
2023-02-02T09:59:48.508Z,2.48
2023-02-02T10:02:42.496Z,2.50
2023-02-02T10:05:23.411Z,2.44
2023-02-02T10:08:10.921Z,2.34
2023-02-02T10:11:24.761Z,2.32
2023-02-02T10:14:25.464Z,2.20
2023-02-02T10:17:50.298Z,2.12
2023-02-02T10:20:49.369Z,2.08
2023-02-02T10:23:33.760Z,2.05
2023-02-02T10:26:38.928Z,1.97
2023-02-02T10:30:00.786Z,1.91
2023-02-02T10:33:01.610Z,1.84
2023-02-02T10:35:54.968Z,1.79
2023-02-02T10:38:48.989Z,1.75
2023-02-02T10:41:36.040Z,1.70
2023-02-02T10:44:27.353Z,1.77
2023-02-02T10:47:01.169Z,1.83
2023-02-02T10:49:41.256Z,1.85
2023-02-02T10:52:41.104Z,1.88
2023-02-02T11:03:00.698Z,2.00
2023-02-02T11:06:21.776Z,2.08
2023-02-02T11:10:32.704Z,2.24
2023-02-02T11:13:46.992Z,2.46
2023-02-02T11:24:29.946Z,3.11
2023-02-02T11:28:05.568Z,3.07
2023-02-02T11:31:46.682Z,3.10
2023-02-02T11:49:44.453Z,3.36
2023-02-02T11:52:20.825Z,3.50
2023-02-02T11:55:42.103Z,3.68
2023-02-02T11:58:30.883Z,4.02
2023-02-02T12:02:30.061Z,4.34
2023-02-02T12:05:37.648Z,4.46
2023-02-02T12:08:23.450Z,4.45
2023-02-02T12:11:03.153Z,4.45
2023-02-02T12:14:05.990Z,4.37
2023-02-02T12:16:54.455Z,4.25
2023-02-02T12:19:58.960Z,4.31
2023-02-02T12:23:05.865Z,4.41
2023-02-02T12:26:25.137Z,4.50
2023-02-02T12:29:14.648Z,4.31
2023-02-02T12:32:18.717Z,4.35
2023-02-02T12:35:47.992Z,4.33
2023-02-02T12:42:17.254Z,4.01
2023-02-02T12:45:26.560Z,3.81
2023-02-02T12:48:27.930Z,3.95
2023-02-02T12:51:28.925Z,4.02
2023-02-02T12:54:33.413Z,4.12
2023-02-02T12:57:19.142Z,4.44
2023-02-02T13:00:15.926Z,4.66
2023-02-02T13:03:06.014Z,4.77
2023-02-02T13:06:02.713Z,5.32
2023-02-02T13:09:11.516Z,6.17
2023-02-02T13:12:51.911Z,6.53
2023-02-02T13:16:01.941Z,6.53
2023-02-02T13:19:20.642Z,6.68
2023-02-02T13:22:13.699Z,7.16
2023-02-02T13:24:51.289Z,7.32
2023-02-02T13:28:00.916Z,7.37
2023-02-02T13:30:39.338Z,6.94
2023-02-02T13:33:26.933Z,7.13
2023-02-02T13:36:04.874Z,6.72
2023-02-02T13:38:35.094Z,6.75
2023-02-02T13:41:09.002Z,6.95
2023-02-02T13:44:06.191Z,6.97
2023-02-02T13:46:50.829Z,6.76
2023-02-02T13:49:26.831Z,5.91
2023-02-02T13:52:25.661Z,5.67
2023-02-02T13:55:20.245Z,5.29
2023-02-02T13:58:12.208Z,4.81
2023-02-02T14:00:49.250Z,4.54
2023-02-02T14:03:39.970Z,4.14
2023-02-02T14:06:17.180Z,3.99
2023-02-02T14:08:51.128Z,3.83
2023-02-02T14:11:24.901Z,3.67
2023-02-02T14:14:15.519Z,3.53
2023-02-02T14:16:56.184Z,3.40
2023-02-02T14:19:57.310Z,3.27
2023-02-02T14:22:48.501Z,3.15
2023-02-02T14:26:07.648Z,3.02
2023-02-02T14:29:29.992Z,2.87
2023-02-02T14:32:46.205Z,2.82
2023-02-02T14:36:23.604Z,2.73
2023-02-02T14:40:15.855Z,2.64
2023-02-02T14:44:05.632Z,2.63
2023-02-02T14:47:27.998Z,2.62
2023-02-02T14:50:35.414Z,2.62
2023-02-02T14:53:43.925Z,2.62
2023-02-02T14:56:17.462Z,2.59
2023-02-02T14:59:00.420Z,2.58
2023-02-02T15:01:33.391Z,2.55
2023-02-02T15:04:25.416Z,2.55
2023-02-02T15:06:54.596Z,2.51
2023-02-02T15:09:28.545Z,2.51
2023-02-02T15:12:18.035Z,2.49
2023-02-02T15:14:56.299Z,2.45
2023-02-02T15:18:00.972Z,2.40
2023-02-02T15:20:51.666Z,2.34
2023-02-02T15:23:42.729Z,2.30
2023-02-02T15:26:25.292Z,2.26
2023-02-02T15:29:17.513Z,2.23
2023-02-02T15:31:50.244Z,2.19
2023-02-02T15:34:31.022Z,2.15
2023-02-02T15:37:06.541Z,2.10
2023-02-02T15:40:04.214Z,2.03
2023-02-02T15:43:02.725Z,1.97
2023-02-02T15:45:54.871Z,1.87
2023-02-02T15:48:30.500Z,1.79
2023-02-02T15:51:38.624Z,1.71
2023-02-02T15:54:26.047Z,1.64
2023-02-02T15:57:36.832Z,1.57
2023-02-02T16:00:25.974Z,1.49
2023-02-02T16:03:10.197Z,1.40
2023-02-02T16:05:44.268Z,1.30
2023-02-02T16:08:19.777Z,1.23
2023-02-02T16:10:49.483Z,1.18
2023-02-02T16:13:27.860Z,1.13
2023-02-02T16:15:59.897Z,1.10
2023-02-02T16:18:28.327Z,1.09
2023-02-02T16:21:00.880Z,1.10
2023-02-02T16:23:34.509Z,1.10
2023-02-02T16:26:06.121Z,1.09
2023-02-02T16:28:35.103Z,1.08
2023-02-02T16:31:03.631Z,1.09
2023-02-02T16:33:42.252Z,1.09
2023-02-02T16:36:26.804Z,1.10
2023-02-02T16:38:58.010Z,1.11
2023-02-02T16:41:32.119Z,1.12
2023-02-02T16:44:34.811Z,1.13
2023-02-02T16:47:05.262Z,1.17
2023-02-02T16:49:34.261Z,1.20
2023-02-02T16:52:12.710Z,1.23
2023-02-02T16:54:45.377Z,1.26
2023-02-02T16:57:19.354Z,1.27
2023-02-02T16:59:51.567Z,1.28
2023-02-02T17:02:36.705Z,1.30
2023-02-02T17:05:10.737Z,1.33
2023-02-02T17:07:46.180Z,1.36
2023-02-02T17:10:35.055Z,1.40
2023-02-02T17:13:36.660Z,1.47
2023-02-02T17:16:04.823Z,1.54
2023-02-02T17:18:32.811Z,1.61
2023-02-02T17:21:07.452Z,1.67
2023-02-02T17:23:36.595Z,1.71
2023-02-02T17:26:07.899Z,1.73
2023-02-02T17:28:40.376Z,1.77
2023-02-02T17:31:12.128Z,1.82
2023-02-02T17:33:41.125Z,1.87
2023-02-02T17:36:13.848Z,1.91
2023-02-02T17:38:41.823Z,1.94
2023-02-02T17:41:14.153Z,1.94
2023-02-02T17:43:42.892Z,1.89
2023-02-02T17:46:13.387Z,1.84
2023-02-02T17:48:41.371Z,1.82
2023-02-02T17:51:15.311Z,1.82
2023-02-02T17:53:44.196Z,1.82
2023-02-02T17:56:12.137Z,1.82
2023-02-02T17:58:40.276Z,1.82
2023-02-02T18:01:11.583Z,1.82
2023-02-02T18:03:45.735Z,1.82
2023-02-02T18:06:30.037Z,1.81
2023-02-02T18:09:33.745Z,1.80
2023-02-02T18:12:01.787Z,1.82
2023-02-02T18:14:30.146Z,1.82
2023-02-02T18:16:58.037Z,1.80
2023-02-02T18:19:25.978Z,1.81
2023-02-02T18:21:54.985Z,1.82
2023-02-02T18:25:04.729Z,1.81
2023-02-02T18:27:45.245Z,1.81
2023-02-02T18:30:37.451Z,1.80
2023-02-02T18:33:20.515Z,1.80
2023-02-02T18:35:49.556Z,1.78
2023-02-02T18:38:23.551Z,1.76
2023-02-02T18:41:27.496Z,1.74
2023-02-02T18:45:23.154Z,1.72
2023-02-02T18:49:00.485Z,1.74
2023-02-02T18:52:41.486Z,1.72
2023-02-02T18:55:41.469Z,1.73
2023-02-02T18:59:14.429Z,1.72
2023-02-02T19:02:25.115Z,1.72
2023-02-02T19:06:00.083Z,1.73
2023-02-02T19:08:52.173Z,1.76
2023-02-02T19:11:47.495Z,1.81
2023-02-02T19:15:12.490Z,1.86
2023-02-02T19:18:10.757Z,1.91
2023-02-02T19:21:31.496Z,1.93
2023-02-02T19:24:50.422Z,1.92
2023-02-02T19:28:29.460Z,1.90
2023-02-02T19:32:04.472Z,1.85
2023-02-02T19:42:38.601Z,1.67
2023-02-02T19:50:03.440Z,1.65
2023-02-02T19:54:07.713Z,1.58
2023-02-02T19:58:05.961Z,1.53
2023-02-02T20:02:03.471Z,1.48
2023-02-02T20:05:24.689Z,1.45
2023-02-02T20:09:10.383Z,1.45
2023-02-02T20:12:22.476Z,1.46
2023-02-02T20:14:50.457Z,1.47
2023-02-02T20:17:32.928Z,1.49
2023-02-02T20:20:00.805Z,1.51
2023-02-02T20:22:30.216Z,1.52
2023-02-02T20:25:33.836Z,1.51
2023-02-02T20:28:08.287Z,1.50
2023-02-02T20:30:36.140Z,1.48
2023-02-02T20:33:21.259Z,1.46
2023-02-02T20:35:49.196Z,1.41
2023-02-02T20:38:25.921Z,1.34
2023-02-02T20:40:54.388Z,1.24
2023-02-02T20:43:23.154Z,1.15
2023-02-02T20:45:51.668Z,1.05
2023-02-02T20:48:19.658Z,0.95
2023-02-02T20:50:47.548Z,0.84
2023-02-02T20:53:16.432Z,0.75
2023-02-02T20:55:44.878Z,0.66
2023-02-02T20:58:12.920Z,0.60
2023-02-02T21:00:40.798Z,0.55
2023-02-02T21:03:08.677Z,0.51
2023-02-02T21:05:36.423Z,0.48
2023-02-02T21:08:04.602Z,0.46
2023-02-02T21:10:32.967Z,0.46
2023-02-02T21:13:00.826Z,0.44
2023-02-02T21:15:28.848Z,0.40
2023-02-02T21:17:56.782Z,0.37
2023-02-02T21:20:24.903Z,0.34
2023-02-02T21:22:52.907Z,0.32
2023-02-02T21:25:20.758Z,0.31
2023-02-02T21:27:57.757Z,0.29
2023-02-02T21:30:26.746Z,0.28
2023-02-02T21:32:55.017Z,0.29
2023-02-02T21:35:24.655Z,0.31
2023-02-02T21:37:56.975Z,0.33
2023-02-02T21:40:29.730Z,0.34
2023-02-02T21:42:59.651Z,0.33
2023-02-02T21:45:34.590Z,0.31
2023-02-02T21:48:07.567Z,0.27
2023-02-02T21:50:37.831Z,0.20
2023-02-02T21:53:23.530Z,0.18
2023-02-02T21:55:57.180Z,0.14
2023-02-02T21:58:32.623Z,0.11
2023-02-02T22:01:21.668Z,0.00
2023-02-02T22:03:50.327Z,0.05
2023-02-02T22:06:25.972Z,0.08
2023-02-02T22:09:01.362Z,0.10
2023-02-02T22:11:48.358Z,0.12
2023-02-02T22:14:22.047Z,0.12
2023-02-02T22:16:53.480Z,0.09
2023-02-02T22:19:39.283Z,0.07
2023-02-02T22:22:14.055Z,0.05
2023-02-02T22:24:44.168Z,0.05
2023-02-02T22:27:19.291Z,0.05
2023-02-02T22:29:47.212Z,0.08
2023-02-02T22:32:15.063Z,0.12
2023-02-02T22:34:42.829Z,0.15
2023-02-02T23:03:42.532Z,0.07
2023-02-02T23:17:59.768Z,0.09
2023-02-02T23:20:35.262Z,0.09
2023-02-02T23:31:47.183Z,0.14
2023-02-02T23:34:16.686Z,0.20
2023-02-02T23:36:45.549Z,0.24
2023-02-02T23:39:29.504Z,0.27
2023-02-02T23:41:57.666Z,0.29
2023-02-02T23:44:29.023Z,0.32
2023-02-02T23:47:01.432Z,0.35
2023-02-02T23:49:32.839Z,0.40
2023-02-02T23:52:05.073Z,0.44
2023-02-02T23:54:34.511Z,0.45
2023-02-02T23:57:10.541Z,0.46
2023-02-02T23:59:38.769Z,0.43
